Yokota Air Base
RJTY : now visible

Airfield :











YOU CAN JOIN US ON...

 
LOGIN :

Register | Disclaimer

   EN    FR    IT 

 









Legend :    VFR   Marginal VFR   IFR   Intensive IFR   Very Intensive IFR
Visi :
Ceiling :
>= 8 km
>= 3000ft
5 to 8 km
1000 to 3000 ft
1500m to 5 km
500 to 1000 ft
800 to 1500m
200 to 500 ft
< 800m
< 200 ft
Symbols :   Thunderstorms  Fog  Heavy snow  Heavy precipitations  Wind > 20 kt







- Airport Elevation : 463 ft
- IATA code : OKO


RJTY - Yokota Air Base

CURRENT METAR :
  • 260756Z AUTO 20009KT 10SM CLR 27/13 A3003 RMK AO2 SLP168 T02690132 FZRANO $

EXPIRED METARs :
  • 260656Z AUTO 19009KT 10SM CLR 29/11 A3003 RMK AO2 SLP167 T02890110 FZRANO $
  • 260556Z AUTO 18007KT 10SM CLR 31/13 A3004 RMK AO2 SLP170 T03060125 10323 20267 57014 FZRANO $

TAF TAF RJTY
Valid from the 26 at 05:00 until the 27 at 11:00 UTC


260500Z 2605/2711 17010G15KT 9999 FEW200 QNH3001INS
BECMG 2608/2609 VRB06KT 9999 SKC QNH2997INS
BECMG 2705/2706 15012G18KT 9999 SKC QNH2999INS TX32/2705Z TN15/2621Z
RJJJ FIR / Asia



MET'MAP, your aeronautical weather chart ! - Copyright ORBIFLY December 2007 - Disclaimer

ORBIFLY MET'MAP TEAM :

Programming & Development : Alexandra Zaïnal
Concept & Development : Baudouin d'Aumeries
Co-Development & Prog : Marc-Olivier Méhu
Technical & hardware support : Manuel Goepfert

Contact : metmap@orbifly.com




SOURCES & CREDITS :

   NOAA       Earth
Advisory